Time;durP1;ratioP1;P1;durP2;ratioP2;P2;SDS_P1;SDS_P2;PMS_P1;PMS_P2;Temp;Humidity;BMP_temperature;BMP_pressure;BME280_temperature;BME280_humidity;BME280_pressure;Samples;Min_cycle;Max_cycle;Signal;HPM_P1;HPM_P2
2021/03/09 00:01:30;;;;;;;70.50;31.20;;;4.40;78.90;;;;;;5027328;28;20537;-79
2021/03/09 00:03:56;;;;;;;69.10;31.50;;;4.40;78.90;;;;;;5022493;28;20414;-78
2021/03/09 00:06:22;;;;;;;75.40;34.97;;;4.40;78.90;;;;;;5002807;28;20164;-80
2021/03/09 00:08:48;;;;;;;74.70;33.43;;;4.40;78.90;;;;;;5001936;28;20456;-79
2021/03/09 00:11:13;;;;;;;86.93;32.50;;;4.40;79.00;;;;;;5003600;28;20168;-78
2021/03/09 00:13:39;;;;;;;69.03;34.63;;;4.40;78.90;;;;;;5022479;28;20629;-79
2021/03/09 00:16:05;;;;;;;67.70;30.20;;;4.40;78.90;;;;;;5017272;28;20167;-78
2021/03/09 00:18:31;;;;;;;69.03;31.63;;;4.40;79.00;;;;;;5018551;28;20249;-79
2021/03/09 00:20:57;;;;;;;63.17;29.93;;;4.40;79.00;;;;;;5001085;28;20457;-78
2021/03/09 00:23:22;;;;;;;72.27;34.67;;;4.30;79.10;;;;;;5019624;28;20179;-78
2021/03/09 00:25:48;;;;;;;79.90;35.30;;;4.30;79.10;;;;;;5016863;28;20175;-79
2021/03/09 00:28:18;;;;;;;80.63;35.47;;;4.30;79.10;;;;;;5018616;28;20673;-78
2021/03/09 00:30:44;;;;;;;72.10;33.03;;;4.30;79.20;;;;;;5019335;28;20668;-79
2021/03/09 00:33:10;;;;;;;80.97;34.77;;;4.30;79.30;;;;;;5021057;28;20541;-79
2021/03/09 00:35:35;;;;;;;65.37;32.07;;;4.30;79.40;;;;;;4986316;28;20205;-78
2021/03/09 00:38:01;;;;;;;77.73;34.63;;;4.40;79.50;;;;;;5001867;28;20267;-78
2021/03/09 00:40:27;;;;;;;73.20;33.07;;;4.40;79.50;;;;;;5000527;28;20206;-79
2021/03/09 00:42:52;;;;;;;68.90;30.60;;;4.40;79.40;;;;;;5001759;28;20217;-80
2021/03/09 00:45:18;;;;;;;77.03;30.73;;;4.30;79.40;;;;;;5012479;28;20265;-78
2021/03/09 00:47:44;;;;;;;76.13;34.53;;;4.30;79.50;;;;;;5022334;28;20190;-77
2021/03/09 00:50:10;;;;;;;83.57;32.77;;;4.30;79.50;;;;;;5030642;28;20164;-77
2021/03/09 00:52:35;;;;;;;86.57;34.80;;;4.30;79.60;;;;;;5036394;28;20167;-77
2021/03/09 00:55:01;;;;;;;73.60;34.97;;;4.30;79.40;;;;;;5035709;28;20440;-78
2021/03/09 00:57:27;;;;;;;75.00;34.20;;;4.30;79.50;;;;;;5032075;28;20187;-78
2021/03/09 00:59:53;;;;;;;76.63;32.40;;;4.30;79.70;;;;;;5011379;28;20696;-79
2021/03/09 01:02:19;;;;;;;79.83;34.37;;;4.30;79.70;;;;;;5026651;28;20422;-78
2021/03/09 01:04:45;;;;;;;70.33;31.20;;;4.30;79.80;;;;;;5033540;28;20171;-78
2021/03/09 01:07:10;;;;;;;73.53;33.13;;;4.30;79.90;;;;;;5030470;28;20227;-79
2021/03/09 01:09:36;;;;;;;69.77;31.80;;;4.40;80.10;;;;;;5012531;28;20181;-78
2021/03/09 01:12:02;;;;;;;79.50;35.07;;;4.40;79.80;;;;;;5029521;28;20171;-77
2021/03/09 01:14:28;;;;;;;75.33;32.27;;;4.40;79.70;;;;;;5009655;28;20194;-78
2021/03/09 01:16:53;;;;;;;72.73;30.33;;;4.40;79.60;;;;;;5021616;28;20907;-78
2021/03/09 01:19:19;;;;;;;87.30;34.47;;;4.40;79.60;;;;;;5001422;28;20206;-78
2021/03/09 01:21:45;;;;;;;67.93;30.30;;;4.40;79.60;;;;;;5019835;28;20649;-78
2021/03/09 01:24:11;;;;;;;77.03;33.40;;;4.40;79.50;;;;;;5017560;28;20249;-78
2021/03/09 01:26:36;;;;;;;80.03;36.13;;;4.40;79.50;;;;;;4999707;28;20171;-79
2021/03/09 01:29:03;;;;;;;66.63;30.57;;;4.40;79.60;;;;;;5005270;28;20503;-78
2021/03/09 01:31:28;;;;;;;67.50;31.13;;;4.40;79.40;;;;;;5025604;28;20226;-78
2021/03/09 01:33:54;;;;;;;66.93;30.17;;;4.40;79.50;;;;;;5020313;28;20423;-79
2021/03/09 01:36:20;;;;;;;82.20;33.60;;;4.40;79.60;;;;;;5020980;28;20183;-78
2021/03/09 01:38:45;;;;;;;64.43;32.17;;;4.40;79.60;;;;;;5002398;28;20229;-78
2021/03/09 01:41:12;;;;;;;70.23;32.43;;;4.40;79.70;;;;;;5021282;28;20178;-79
2021/03/09 01:43:38;;;;;;;78.00;33.53;;;4.40;79.70;;;;;;5016934;28;20242;-80
2021/03/09 01:46:03;;;;;;;77.97;33.70;;;4.30;79.70;;;;;;4997914;28;21017;-78
2021/03/09 01:48:37;;;;;;;79.10;34.20;;;4.30;79.80;;;;;;4998226;28;20501;-78
2021/03/09 01:51:03;;;;;;;78.77;34.10;;;4.30;79.80;;;;;;4997814;28;20178;-79
2021/03/09 01:53:29;;;;;;;91.10;35.07;;;4.30;80.00;;;;;;4979900;28;20904;-77
2021/03/09 01:55:55;;;;;;;75.27;32.97;;;4.20;80.10;;;;;;4983559;28;20430;-78
2021/03/09 01:58:26;;;;;;;84.23;31.00;;;4.20;80.30;;;;;;4999370;28;20434;-78
2021/03/09 02:00:53;;;;;;;70.60;32.77;;;4.20;80.50;;;;;;5018103;28;20868;-77
2021/03/09 02:03:19;;;;;;;72.17;33.50;;;4.20;80.70;;;;;;5023151;28;20422;-79
2021/03/09 02:05:44;;;;;;;69.57;32.67;;;4.10;80.80;;;;;;5020282;28;20487;-78
2021/03/09 02:08:10;;;;;;;74.97;32.50;;;4.10;80.90;;;;;;5003316;28;20219;-80
2021/03/09 02:10:36;;;;;;;74.20;31.87;;;4.20;81.10;;;;;;5019072;28;20190;-78
2021/03/09 02:13:33;;;;;;;64.83;28.77;;;4.10;81.20;;;;;;5018369;28;20418;-78
2021/03/09 02:16:14;;;;;;;68.47;31.17;;;4.20;81.20;;;;;;5003702;28;20184;-78
2021/03/09 02:19:05;;;;;;;75.00;32.07;;;4.20;81.10;;;;;;5019174;28;21111;-79
2021/03/09 02:21:49;;;;;;;66.70;30.77;;;4.20;81.10;;;;;;5006108;28;20509;-79
2021/03/09 02:24:46;;;;;;;74.23;30.80;;;4.30;81.00;;;;;;5004234;28;20428;-77
2021/03/09 02:27:27;;;;;;;68.90;31.57;;;4.20;81.00;;;;;;5019524;28;20417;-78
2021/03/09 02:30:05;;;;;;;74.47;31.80;;;4.20;80.90;;;;;;5021098;28;20422;-79
2021/03/09 02:32:34;;;;;;;78.30;32.70;;;4.30;81.00;;;;;;5019295;28;20793;-78
2021/03/09 02:35:01;;;;;;;68.60;32.60;;;4.30;80.90;;;;;;5019919;28;20776;-78
2021/03/09 02:37:34;;;;;;;74.17;30.53;;;4.30;80.70;;;;;;5019855;28;20454;-78
2021/03/09 02:40:03;;;;;;;68.70;31.30;;;4.30;80.90;;;;;;5018774;28;20489;-78
2021/03/09 02:42:31;;;;;;;69.33;31.00;;;4.20;80.70;;;;;;5003681;28;20422;-78
2021/03/09 02:44:59;;;;;;;79.90;32.00;;;4.20;80.80;;;;;;5023479;28;20418;-77
2021/03/09 02:47:27;;;;;;;69.13;31.10;;;4.20;81.00;;;;;;5021984;28;20970;-77
2021/03/09 02:49:55;;;;;;;67.90;30.33;;;4.20;81.10;;;;;;5028077;28;20410;-78
2021/03/09 02:52:24;;;;;;;68.83;32.53;;;4.20;81.30;;;;;;5007266;28;20429;-79
2021/03/09 02:54:51;;;;;;;62.80;30.73;;;4.10;81.30;;;;;;5023934;28;20422;-79
2021/03/09 02:57:19;;;;;;;74.70;33.03;;;4.20;81.40;;;;;;5020323;28;20421;-78
2021/03/09 02:59:46;;;;;;;66.93;32.50;;;4.20;81.40;;;;;;5018203;28;20997;-78
2021/03/09 03:02:12;;;;;;;68.63;32.97;;;4.10;81.20;;;;;;5025600;28;20414;-78
2021/03/09 03:04:43;;;;;;;68.93;31.70;;;4.10;81.40;;;;;;4997410;28;20418;-77
2021/03/09 03:07:11;;;;;;;62.37;30.60;;;4.10;81.40;;;;;;5002481;28;20776;-78
2021/03/09 03:09:38;;;;;;;67.93;32.40;;;4.10;81.50;;;;;;5021250;28;20776;-77
2021/03/09 03:12:05;;;;;;;66.80;29.00;;;4.10;81.60;;;;;;5004235;28;20418;-79
2021/03/09 03:14:33;;;;;;;68.53;31.60;;;4.10;81.60;;;;;;5030383;28;20425;-78
2021/03/09 03:17:01;;;;;;;65.70;34.20;;;4.10;81.70;;;;;;5038473;28;20410;-78
2021/03/09 03:19:28;;;;;;;69.80;32.50;;;4.10;81.50;;;;;;5036372;28;20457;-79
2021/03/09 03:21:54;;;;;;;75.50;32.67;;;4.00;81.50;;;;;;5027629;28;20426;-78
2021/03/09 03:24:20;;;;;;;63.00;30.13;;;4.00;81.60;;;;;;5021845;28;20509;-78
2021/03/09 03:26:47;;;;;;;77.03;34.23;;;4.00;81.70;;;;;;5026120;28;20413;-78
2021/03/09 03:29:14;;;;;;;68.20;32.27;;;4.00;81.80;;;;;;5009097;28;20453;-78
2021/03/09 03:31:40;;;;;;;70.63;30.77;;;4.00;81.70;;;;;;5013263;28;20454;-77
2021/03/09 03:34:07;;;;;;;72.60;31.13;;;4.00;81.80;;;;;;5030149;28;20465;-77
2021/03/09 03:36:36;;;;;;;71.43;31.40;;;4.00;81.70;;;;;;5030347;28;20434;-78
2021/03/09 03:39:04;;;;;;;73.03;33.33;;;4.10;81.70;;;;;;5034266;28;20425;-77
2021/03/09 03:41:30;;;;;;;69.20;30.27;;;4.10;81.70;;;;;;4991439;28;20418;-78
2021/03/09 03:43:55;;;;;;;68.60;31.93;;;4.10;81.60;;;;;;5001038;28;20409;-78
2021/03/09 03:46:21;;;;;;;78.97;34.67;;;4.10;81.50;;;;;;5002932;28;20406;-78
2021/03/09 03:48:47;;;;;;;61.50;30.77;;;4.20;81.60;;;;;;5020094;28;20198;-78
2021/03/09 03:51:15;;;;;;;70.30;30.63;;;4.20;81.60;;;;;;5019577;28;20246;-79
2021/03/09 03:53:49;;;;;;;67.87;30.00;;;4.20;81.20;;;;;;5006465;28;20418;-79
2021/03/09 03:56:33;;;;;;;75.13;31.87;;;4.20;81.20;;;;;;5006121;28;21012;-77
2021/03/09 03:59:16;;;;;;;55.93;29.60;;;4.20;81.10;;;;;;5022542;28;20488;-78
2021/03/09 04:01:44;;;;;;;74.93;29.17;;;4.30;81.10;;;;;;5005504;28;20501;-79
2021/03/09 04:04:11;;;;;;;60.87;28.90;;;4.30;81.00;;;;;;5025123;28;20485;-78
2021/03/09 04:06:41;;;;;;;61.93;27.47;;;4.30;80.90;;;;;;5011979;28;20407;-80
2021/03/09 04:09:09;;;;;;;60.70;30.20;;;4.30;81.00;;;;;;4991597;28;20440;-79
2021/03/09 04:11:37;;;;;;;67.50;29.60;;;4.30;81.00;;;;;;5021951;28;20406;-78
2021/03/09 04:14:04;;;;;;;57.67;27.87;;;4.30;80.90;;;;;;5008721;28;20418;-79
2021/03/09 04:16:31;;;;;;;53.97;27.47;;;4.40;81.10;;;;;;4992602;28;20420;-78
2021/03/09 04:18:59;;;;;;;54.67;27.00;;;4.40;81.00;;;;;;4991096;28;20450;-77
2021/03/09 04:21:26;;;;;;;59.03;27.23;;;4.40;81.10;;;;;;5024722;28;20646;-77
2021/03/09 04:23:54;;;;;;;52.53;26.77;;;4.40;81.10;;;;;;5036278;28;20414;-78
2021/03/09 04:26:20;;;;;;;63.30;26.57;;;4.40;81.00;;;;;;5004436;28;20439;-80
2021/03/09 04:28:47;;;;;;;56.93;28.80;;;4.40;81.20;;;;;;5037636;28;20449;-78
2021/03/09 04:31:13;;;;;;;54.10;25.33;;;4.40;81.20;;;;;;5037785;28;20418;-78
2021/03/09 04:33:39;;;;;;;48.33;24.97;;;4.40;81.20;;;;;;5038509;28;20479;-79
2021/03/09 04:36:06;;;;;;;56.27;25.30;;;4.40;82.10;;;;;;5038620;28;20433;-79
2021/03/09 04:38:33;;;;;;;63.20;29.07;;;4.40;81.50;;;;;;5021587;28;20183;-80
2021/03/09 04:40:59;;;;;;;56.37;26.37;;;4.40;81.90;;;;;;5038462;28;20484;-78
2021/03/09 04:43:26;;;;;;;56.87;28.17;;;4.40;81.80;;;;;;5037626;28;20478;-77
2021/03/09 04:45:55;;;;;;;55.27;27.00;;;4.40;82.00;;;;;;5039161;28;20398;-79
2021/03/09 04:48:20;;;;;;;56.83;25.07;;;4.40;82.10;;;;;;5021970;28;20485;-81
2021/03/09 04:50:50;;;;;;;56.50;25.37;;;4.30;82.10;;;;;;5038367;28;20447;-78
2021/03/09 04:53:16;;;;;;;53.90;26.97;;;4.30;82.20;;;;;;5021576;28;20198;-78
2021/03/09 04:55:42;;;;;;;55.97;26.33;;;4.30;82.30;;;;;;5038639;28;20402;-79
2021/03/09 04:58:08;;;;;;;54.73;25.40;;;4.20;82.50;;;;;;5038321;28;20462;-78
2021/03/09 05:00:33;;;;;;;64.23;26.17;;;4.20;82.60;;;;;;5037429;28;20210;-78
2021/03/09 05:02:59;;;;;;;55.20;26.73;;;4.20;82.90;;;;;;5018183;28;20214;-78
2021/03/09 05:05:25;;;;;;;58.23;24.57;;;4.30;83.10;;;;;;4986759;28;20194;-78
2021/03/09 05:07:52;;;;;;;59.13;26.33;;;4.30;83.00;;;;;;5020304;28;20230;-78
2021/03/09 05:10:19;;;;;;;52.10;25.37;;;4.30;83.00;;;;;;5000222;28;20178;-77
2021/03/09 05:12:49;;;;;;;53.97;24.70;;;4.30;83.10;;;;;;4998275;28;20426;-78
2021/03/09 05:15:17;;;;;;;50.07;25.30;;;4.30;83.50;;;;;;5020049;28;20410;-78
2021/03/09 05:17:43;;;;;;;52.03;25.43;;;4.30;83.50;;;;;;4983725;28;20438;-77
2021/03/09 05:20:13;;;;;;;64.47;27.57;;;4.30;84.50;;;;;;5017331;28;20449;-78
2021/03/09 05:22:39;;;;;;;53.00;25.97;;;4.30;83.70;;;;;;4968946;28;20167;-79
2021/03/09 05:25:08;;;;;;;67.03;27.57;;;4.30;83.70;;;;;;5002220;28;20920;-79
2021/03/09 05:27:34;;;;;;;50.00;25.30;;;4.30;83.60;;;;;;5022890;28;20465;-78
2021/03/09 05:30:00;;;;;;;48.60;23.77;;;4.30;83.50;;;;;;5007132;28;20453;-78
2021/03/09 05:32:25;;;;;;;51.33;25.07;;;4.30;84.40;;;;;;4994860;28;20171;-78
2021/03/09 05:34:51;;;;;;;58.10;25.60;;;4.30;83.60;;;;;;5028302;28;20178;-79
2021/03/09 05:37:17;;;;;;;51.27;26.57;;;4.30;83.80;;;;;;5010576;28;20183;-79
2021/03/09 05:39:44;;;;;;;52.93;25.10;;;4.30;84.10;;;;;;5028789;28;20205;-79
2021/03/09 05:42:09;;;;;;;51.50;23.60;;;4.30;84.20;;;;;;5025974;28;20211;-78
2021/03/09 05:44:38;;;;;;;48.60;24.40;;;4.30;84.40;;;;;;5007567;28;20805;-78
2021/03/09 05:47:05;;;;;;;61.00;25.30;;;4.30;84.30;;;;;;5008672;28;20562;-78
2021/03/09 05:49:31;;;;;;;58.50;25.90;;;4.30;84.30;;;;;;5010220;28;20425;-78
2021/03/09 05:52:02;;;;;;;50.37;25.87;;;4.30;84.30;;;;;;5032429;28;20426;-78
2021/03/09 05:54:31;;;;;;;52.00;25.10;;;4.30;85.20;;;;;;5028600;28;20413;-79
2021/03/09 05:56:57;;;;;;;62.83;28.10;;;4.30;84.60;;;;;;5008138;28;20449;-79
2021/03/09 05:59:23;;;;;;;56.83;25.67;;;4.30;84.40;;;;;;4996840;28;20776;-78
2021/03/09 06:01:50;;;;;;;57.80;26.57;;;4.30;84.30;;;;;;5011366;28;20186;-78
2021/03/09 06:04:19;;;;;;;52.23;25.20;;;4.30;84.50;;;;;;5004525;28;20475;-78
2021/03/09 06:06:47;;;;;;;54.53;27.17;;;4.30;84.50;;;;;;5029796;28;20418;-79
2021/03/09 06:09:34;;;;;;;54.47;25.70;;;4.30;84.60;;;;;;5009269;28;20433;-78
2021/03/09 06:12:08;;;;;;;48.90;24.67;;;4.30;84.70;;;;;;5014410;28;20426;-78
2021/03/09 06:14:59;;;;;;;59.77;27.93;;;4.30;85.50;;;;;;5021141;28;22166;-76
2021/03/09 06:17:38;;;;;;;54.33;24.43;;;4.30;84.40;;;;;;5028277;28;20433;-74
2021/03/09 06:20:28;;;;;;;53.03;24.23;;;4.30;84.40;;;;;;5025310;28;20503;-75
2021/03/09 06:23:02;;;;;;;56.50;24.80;;;4.30;84.50;;;;;;5001880;28;20476;-74
2021/03/09 06:25:32;;;;;;;54.23;25.60;;;4.30;84.50;;;;;;5017026;28;20413;-74
2021/03/09 06:28:03;;;;;;;53.43;26.30;;;4.30;84.60;;;;;;5013711;28;20454;-76
2021/03/09 06:30:31;;;;;;;51.47;25.90;;;4.40;84.50;;;;;;5027757;22;20980;-75
2021/03/09 06:33:00;;;;;;;49.93;24.63;;;4.40;84.60;;;;;;5012283;28;20398;-72
2021/03/09 06:35:35;;;;;;;50.90;24.10;;;4.40;84.60;;;;;;5030021;28;20406;-75
2021/03/09 06:38:37;;;;;;;54.23;25.37;;;4.40;84.40;;;;;;5026665;28;20786;-75
2021/03/09 06:44:46;;;;;;;43.63;21.37;;;4.50;84.50;;;;;;5029018;28;20444;-73
2021/03/09 06:47:11;;;;;;;46.13;22.50;;;4.50;84.00;;;;;;5023793;28;20409;-74
2021/03/09 06:49:56;;;;;;;41.33;23.10;;;4.50;84.20;;;;;;5006914;28;20524;-75
2021/03/09 06:52:26;;;;;;;41.27;19.47;;;4.60;83.90;;;;;;5000522;28;20183;-75
2021/03/09 06:55:06;;;;;;;37.37;20.90;;;4.60;83.70;;;;;;4991848;28;20457;-75
2021/03/09 06:58:03;;;;;;;38.40;20.50;;;4.50;83.70;;;;;;5011955;28;20422;-75
2021/03/09 07:00:29;;;;;;;40.27;19.90;;;4.60;83.70;;;;;;4991450;28;20974;-74
2021/03/09 07:02:55;;;;;;;42.43;20.20;;;4.60;83.30;;;;;;5007616;28;20449;-75
2021/03/09 07:05:21;;;;;;;48.67;21.83;;;4.50;83.30;;;;;;5016291;28;20198;-75
2021/03/09 07:08:00;;;;;;;52.30;21.80;;;4.50;83.50;;;;;;5031641;28;20489;-75
2021/03/09 07:10:38;;;;;;;50.00;21.83;;;4.60;83.80;;;;;;5003663;28;20207;-76
2021/03/09 07:13:12;;;;;;;46.93;21.57;;;4.60;83.60;;;;;;5005428;28;20511;-76
2021/03/09 07:15:57;;;;;;;44.37;22.37;;;4.60;83.70;;;;;;4996297;28;20498;-76
2021/03/09 07:18:38;;;;;;;49.20;23.77;;;4.70;83.70;;;;;;5013294;28;20425;-73
2021/03/09 07:21:10;;;;;;;41.80;21.57;;;4.70;83.80;;;;;;5003829;28;20540;-76
2021/03/09 07:24:03;;;;;;;47.50;22.87;;;4.70;83.50;;;;;;5004431;28;20521;-74
2021/03/09 07:26:45;;;;;;;50.40;23.90;;;4.80;83.50;;;;;;5001888;28;20433;-75
2021/03/09 07:29:14;;;;;;;40.27;19.47;;;4.80;83.30;;;;;;5033017;23;20426;-76
2021/03/09 07:31:49;;;;;;;43.07;20.53;;;4.80;82.60;;;;;;5003176;28;20922;-76
2021/03/09 07:34:44;;;;;;;44.80;18.93;;;4.80;82.90;;;;;;4997651;28;20406;-76
2021/03/09 07:38:18;;;;;;;40.93;22.10;;;4.80;83.10;;;;;;4993440;28;20433;-76
2021/03/09 07:41:22;;;;;;;41.93;19.80;;;4.80;83.20;;;;;;4931299;29;20948;-77
2021/03/09 07:44:04;;;;;;;42.83;21.40;;;4.80;83.60;;;;;;4934752;29;20780;-76
2021/03/09 07:47:07;;;;;;;37.93;17.63;;;4.90;83.60;;;;;;4941437;29;20449;-77
2021/03/09 07:49:58;;;;;;;34.83;19.13;;;4.90;82.10;;;;;;5046467;23;20493;-76
2021/03/09 07:52:28;;;;;;;37.63;17.70;;;4.80;82.40;;;;;;5022097;28;20467;-77
2021/03/09 07:55:45;;;;;;;;;;;;;;;;;;;;;
2021/03/09 07:59:27;;;;;;;36.27;17.47;;;4.80;82.60;;;;;;5008512;28;20422;-76
2021/03/09 08:02:59;;;;;;;;;;;;;;;;;;;;;
2021/03/09 08:06:46;;;;;;;38.97;17.40;;;4.80;82.30;;;;;;4982693;28;20419;-77
2021/03/09 08:09:50;;;;;;;39.47;18.40;;;4.80;82.50;;;;;;4983221;28;20415;-76
2021/03/09 08:12:34;;;;;;;34.37;16.00;;;4.80;81.80;;;;;;4998331;28;20434;-76
2021/03/09 08:15:43;;;;;;;35.90;17.13;;;4.70;82.20;;;;;;4979281;28;20870;-78
2021/03/09 08:18:39;;;;;;;34.83;16.97;;;4.70;81.90;;;;;;4937122;29;20471;-77
2021/03/09 08:22:13;;;;;;;;;;;;;;;;;;;;;
2021/03/09 08:25:50;;;;;;;38.13;17.93;;;4.70;82.30;;;;;;4959053;28;20447;-75
2021/03/09 08:29:13;;;;;;;29.07;16.57;;;4.70;82.90;;;;;;4948094;28;20850;-76
2021/03/09 08:31:46;;;;;;;32.67;16.87;;;4.70;82.50;;;;;;4966021;28;20439;-77
2021/03/09 08:34:33;;;;;;;36.80;17.70;;;4.70;82.80;;;;;;4976234;28;20449;-75
2021/03/09 08:40:38;;;;;;;43.47;19.17;;;4.80;83.10;;;;;;4953343;28;20460;-77
2021/03/09 08:43:07;;;;;;;47.63;23.10;;;4.80;83.30;;;;;;4961345;28;20404;-77
2021/03/09 08:45:59;;;;;;;33.47;18.23;;;4.80;83.30;;;;;;4977867;28;20875;-76
2021/03/09 08:48:45;;;;;;;40.30;19.20;;;4.80;82.70;;;;;;4964860;28;20515;-77
2021/03/09 08:52:00;;;;;;;33.90;18.47;;;4.70;83.30;;;;;;5070150;22;20845;-76
2021/03/09 08:55:15;;;;;;;;;;;;;;;;;;;;;
2021/03/09 09:02:28;;;;;;;29.47;14.60;;;5.00;82.50;;;;;;4982588;28;20968;-79
2021/03/09 09:05:40;;;;;;;29.70;17.13;;;5.00;82.20;;;;;;4977257;28;20454;-77
2021/03/09 09:08:32;;;;;;;25.03;15.00;;;5.10;83.60;;;;;;4949533;28;20824;-77
2021/03/09 09:11:43;;;;;;;33.17;17.30;;;5.10;81.90;;;;;;4923153;29;20518;-77
2021/03/09 09:14:35;;;;;;;31.67;15.67;;;5.10;81.90;;;;;;4892921;29;20809;-76
2021/03/09 09:24:14;;;;;;;35.33;18.10;;;5.20;82.10;;;;;;897378;26;20928;-78
2021/03/09 09:26:42;;;;;;;31.80;16.17;;;5.30;82.20;;;;;;4967149;28;20420;-77
2021/03/09 09:29:08;;;;;;;32.93;15.67;;;5.40;81.20;;;;;;4981306;28;20901;-77
2021/03/09 09:32:50;;;;;;;;;;;;;;;;;;;;;
2021/03/09 09:36:57;;;;;;;;;;;;;;;;;;;;;
2021/03/09 09:44:53;;;;;;;33.23;15.40;;;5.40;80.60;;;;;;5006767;28;20506;-76
2021/03/09 09:48:12;;;;;;;33.60;16.50;;;5.50;83.20;;;;;;4920404;29;20448;-76
2021/03/09 09:51:04;;;;;;;30.90;17.30;;;5.60;83.30;;;;;;5130958;23;20484;-78
2021/03/09 09:53:46;;;;;;;35.23;16.87;;;5.70;81.50;;;;;;5000590;28;20529;-77
2021/03/09 09:56:39;;;;;;;32.43;16.37;;;5.70;83.50;;;;;;5001000;28;20417;-77
2021/03/09 09:59:33;;;;;;;39.63;18.80;;;5.80;81.90;;;;;;4984055;28;20417;-76
2021/03/09 10:02:26;;;;;;;29.93;18.20;;;5.80;81.50;;;;;;4969712;28;20414;-75
2021/03/09 10:04:56;;;;;;;32.07;16.80;;;5.80;82.60;;;;;;4985118;28;20476;-76
2021/03/09 10:07:22;;;;;;;30.37;17.33;;;5.80;81.40;;;;;;5013804;28;20406;-76
2021/03/09 10:10:53;;;;;;;34.70;18.70;;;5.70;82.20;;;;;;5000302;28;20568;-76
2021/03/09 10:13:23;;;;;;;35.27;19.57;;;5.60;81.90;;;;;;4959749;28;20473;-76
2021/03/09 10:16:07;;;;;;;34.57;19.03;;;5.70;82.80;;;;;;4991266;28;20515;-76
2021/03/09 10:19:04;;;;;;;29.57;17.57;;;5.80;83.20;;;;;;4976921;28;20511;-78
2021/03/09 10:25:27;;;;;;;29.03;17.63;;;5.70;82.00;;;;;;4938208;29;20426;-76
2021/03/09 10:29:02;;;;;;;34.53;19.90;;;5.80;83.10;;;;;;4993597;28;20923;-77
2021/03/09 10:32:01;;;;;;;30.70;17.00;;;5.80;82.70;;;;;;4919144;29;20456;-77
2021/03/09 10:34:40;;;;;;;26.20;15.10;;;5.80;82.60;;;;;;4907363;29;20838;-76
2021/03/09 10:37:27;;;;;;;26.80;14.80;;;5.80;82.10;;;;;;5003063;28;20415;-76
2021/03/09 10:40:24;;;;;;;24.10;14.87;;;5.70;81.20;;;;;;4998103;28;20434;-77
2021/03/09 10:42:50;;;;;;;22.90;14.43;;;5.50;80.80;;;;;;5011660;28;20430;-76
2021/03/09 10:45:39;;;;;;;22.43;14.60;;;5.40;82.90;;;;;;5000404;28;20918;-77
2021/03/09 10:48:39;;;;;;;22.70;14.87;;;5.40;83.40;;;;;;4998158;28;20423;-77
2021/03/09 10:51:41;;;;;;;31.07;16.50;;;5.50;83.10;;;;;;5014539;28;21088;-78
2021/03/09 10:54:38;;;;;;;;;;;;;;;;;;;;;
2021/03/09 10:57:56;;;;;;;27.53;17.90;;;5.50;83.70;;;;;;5001682;28;20412;-77
2021/03/09 11:00:22;;;;;;;26.53;16.53;;;5.60;81.80;;;;;;4995475;28;20453;-76
2021/03/09 11:02:55;;;;;;;32.33;17.27;;;5.50;81.40;;;;;;5032653;28;20448;-76
2021/03/09 11:05:23;;;;;;;30.83;16.70;;;5.50;81.20;;;;;;5015453;28;20599;-75
2021/03/09 11:07:51;;;;;;;34.43;19.10;;;5.40;83.00;;;;;;5000004;28;20488;-77
2021/03/09 11:10:27;;;;;;;31.10;19.57;;;5.50;83.70;;;;;;5040886;22;20683;-76
2021/03/09 11:12:55;;;;;;;29.37;17.53;;;5.60;83.60;;;;;;4994386;28;20403;-77
2021/03/09 11:15:22;;;;;;;21.90;15.87;;;5.70;83.10;;;;;;4996552;28;20990;-76
2021/03/09 11:17:53;;;;;;;37.30;16.87;;;5.80;82.10;;;;;;4978128;28;20178;-77
2021/03/09 11:20:20;;;;;;;28.97;17.47;;;5.80;82.80;;;;;;4962794;28;20518;-78
2021/03/09 11:22:51;;;;;;;29.30;16.47;;;5.90;81.20;;;;;;4995845;28;20172;-76
2021/03/09 11:25:17;;;;;;;28.53;17.13;;;5.90;81.80;;;;;;4968078;28;20443;-76
2021/03/09 11:27:46;;;;;;;28.90;16.33;;;5.90;80.90;;;;;;4994234;28;20419;-75
2021/03/09 11:30:15;;;;;;;29.07;16.60;;;5.80;81.60;;;;;;4947688;28;20216;-76
2021/03/09 11:32:51;;;;;;;31.87;17.60;;;5.70;80.80;;;;;;4995684;28;20403;-77
2021/03/09 11:35:32;;;;;;;33.37;18.10;;;5.70;82.20;;;;;;4976705;28;20420;-76
2021/03/09 11:38:03;;;;;;;26.17;15.93;;;5.60;82.40;;;;;;4959158;28;20797;-76
2021/03/09 11:40:31;;;;;;;28.40;17.43;;;5.60;82.60;;;;;;4987348;28;20457;-76
2021/03/09 11:43:09;;;;;;;32.27;17.93;;;5.60;83.10;;;;;;4976963;28;20518;-77
2021/03/09 11:46:07;;;;;;;40.47;20.83;;;5.60;83.70;;;;;;4983672;28;20445;-78
2021/03/09 11:48:58;;;;;;;32.63;19.73;;;5.70;84.40;;;;;;4954002;28;20522;-76
2021/03/09 11:51:59;;;;;;;44.10;23.80;;;5.70;84.00;;;;;;5001304;28;20509;-76
2021/03/09 11:54:47;;;;;;;34.53;19.10;;;5.90;85.40;;;;;;4957620;28;20426;-75
2021/03/09 11:58:04;;;;;;;34.87;20.60;;;6.00;82.30;;;;;;4985181;28;20415;-75
2021/03/09 12:00:33;;;;;;;31.07;19.03;;;6.10;83.20;;;;;;4988873;23;20979;-76
2021/03/09 12:03:51;;;;;;;36.60;21.43;;;6.00;81.80;;;;;;5010256;28;20805;-76
2021/03/09 12:07:36;;;;;;;33.23;20.00;;;6.00;83.80;;;;;;5005325;28;20480;-78
2021/03/09 12:10:24;;;;;;;42.47;22.77;;;6.10;83.90;;;;;;4982217;28;20927;-75
2021/03/09 12:12:53;;;;;;;39.60;20.57;;;6.10;83.80;;;;;;4979653;28;20502;-78
2021/03/09 12:15:49;;;;;;;35.03;20.47;;;6.10;83.40;;;;;;4995405;28;20484;-76
2021/03/09 12:19:15;;;;;;;39.00;20.40;;;6.20;83.70;;;;;;4969227;28;20530;-75
2021/03/09 12:21:44;;;;;;;39.17;22.03;;;6.20;84.30;;;;;;4996413;28;20443;-75
2021/03/09 12:24:39;;;;;;;41.57;20.27;;;6.30;84.00;;;;;;4998221;28;20508;-78
2021/03/09 12:27:05;;;;;;;41.00;22.90;;;6.30;83.40;;;;;;5015906;28;20414;-76
2021/03/09 12:29:42;;;;;;;42.97;22.13;;;6.30;83.50;;;;;;5014123;28;20461;-77
2021/03/09 12:32:25;;;;;;;41.23;23.67;;;6.30;84.20;;;;;;4987559;28;20433;-78
2021/03/09 12:35:35;;;;;;;45.03;22.67;;;6.30;84.00;;;;;;4977246;28;20499;-77
2021/03/09 12:38:07;;;;;;;44.07;25.17;;;6.30;84.60;;;;;;4972581;28;20414;-76
2021/03/09 12:40:41;;;;;;;48.90;26.97;;;6.30;84.50;;;;;;5065382;22;20565;-77
2021/03/09 12:43:33;;;;;;;43.87;23.10;;;6.20;83.90;;;;;;5011686;28;21022;-78
2021/03/09 12:49:37;;;;;;;57.47;25.60;;;6.20;87.50;;;;;;5019744;28;20461;-76
2021/03/09 12:52:06;;;;;;;50.47;25.50;;;6.40;86.60;;;;;;5001150;28;20431;-76
2021/03/09 12:55:21;;;;;;;;;;;;;;;;;;;;;
2021/03/09 12:58:22;;;;;;;47.53;24.57;;;6.60;84.70;;;;;;5035162;28;20957;-76
2021/03/09 13:00:55;;;;;;;49.93;23.40;;;6.70;86.30;;;;;;4987827;28;20445;-76
2021/03/09 13:03:47;;;;;;;50.77;25.10;;;6.80;84.50;;;;;;5001047;28;20452;-78
2021/03/09 13:06:20;;;;;;;52.10;25.60;;;6.80;85.30;;;;;;4989765;28;20428;-77
2021/03/09 13:09:13;;;;;;;56.63;26.33;;;6.90;83.70;;;;;;4984121;28;20440;-77
2021/03/09 13:12:03;;;;;;;45.13;24.80;;;6.80;84.90;;;;;;4997770;28;20410;-78
2021/03/09 13:15:48;;;;;;;46.43;25.07;;;6.90;83.80;;;;;;4989340;28;20422;-79
2021/03/09 13:18:57;;;;;;;49.43;25.27;;;6.90;85.80;;;;;;5037788;28;20840;-77
2021/03/09 13:25:14;;;;;;;;;;;;;;;;;;;;;
2021/03/09 13:28:19;;;;;;;51.17;26.50;;;7.10;84.00;;;;;;4921787;29;20425;-76
2021/03/09 13:31:24;;;;;;;50.27;27.33;;;7.10;84.60;;;;;;4910501;29;20465;-77
2021/03/09 13:37:24;;;;;;;53.00;25.70;;;7.00;85.70;;;;;;4892607;29;20504;-76
2021/03/09 13:40:12;;;;;;;45.03;25.00;;;7.00;84.20;;;;;;4939202;29;20448;-79
2021/03/09 13:42:59;;;;;;;59.77;25.90;;;6.90;83.70;;;;;;4955542;28;20456;-78
2021/03/09 13:46:19;;;;;;;56.23;27.50;;;6.80;84.80;;;;;;4944884;29;20416;-76
2021/03/09 13:48:52;;;;;;;52.53;28.13;;;6.80;86.40;;;;;;4945622;28;20407;-76
2021/03/09 13:52:09;;;;;;;51.70;26.30;;;6.90;87.10;;;;;;4986707;28;20462;-80
2021/03/09 13:55:24;;;;;;;44.70;24.90;;;6.90;84.60;;;;;;5004872;28;20418;-77
2021/03/09 13:58:00;;;;;;;50.73;24.50;;;6.80;84.50;;;;;;4964763;28;20427;-76
2021/03/09 14:00:29;;;;;;;59.60;27.70;;;6.70;85.90;;;;;;4959160;28;20538;-75
2021/03/09 14:03:14;;;;;;;54.80;28.50;;;6.70;86.50;;;;;;4994426;28;20421;-78
2021/03/09 14:05:43;;;;;;;61.97;31.10;;;6.60;87.00;;;;;;5022970;28;20437;-77
2021/03/09 14:08:41;;;;;;;50.07;25.27;;;6.60;87.60;;;;;;5015730;28;20459;-76
2021/03/09 14:11:07;;;;;;;53.77;26.00;;;6.50;88.00;;;;;;5003159;28;20457;-75
2021/03/09 14:13:32;;;;;;;53.00;25.10;;;6.50;88.90;;;;;;4997367;28;20417;-76
2021/03/09 14:16:01;;;;;;;54.90;30.57;;;6.40;89.10;;;;;;5016285;28;20314;-75
2021/03/09 14:24:57;;;;;;;53.97;23.50;;;6.40;90.20;;;;;;4985310;28;20411;-76
2021/03/09 14:27:23;;;;;;;53.33;28.73;;;6.50;90.40;;;;;;4995440;28;20415;-77
2021/03/09 14:29:51;;;;;;;171.37;100.90;;;6.60;90.90;;;;;;4959507;28;20533;-77
2021/03/09 14:32:29;;;;;;;55.03;27.13;;;6.60;90.90;;;;;;4974963;28;20439;-76